Time;durP1;ratioP1;P1;durP2;ratioP2;P2;SDS_P1;SDS_P2;PMS_P1;PMS_P2;Temp;Humidity;BMP_temperature;BMP_pressure;BME280_temperature;BME280_humidity;BME280_pressure;Samples;Min_cycle;Max_cycle;Signal;HPM_P1;HPM_P2
2024/04/05 00:02:17;;;;;;;9.40;2.17;;;;;;;;;;4951316;28;95130;-78
2024/04/05 00:04:43;;;;;;;5.97;1.55;;;;;;;;;;4950160;28;93115;-78
2024/04/05 00:07:08;;;;;;;9.05;1.67;;;;;;;;;;4950283;28;92474;-78
2024/04/05 00:09:34;;;;;;;8.40;2.13;;;;;;;;;;4932899;28;94099;-77
2024/04/05 00:11:59;;;;;;;8.65;1.70;;;;;;;;;;4949838;28;93032;-77
2024/04/05 00:14:25;;;;;;;9.00;1.88;;;;;;;;;;4953060;28;92874;-78
2024/04/05 00:16:50;;;;;;;7.97;1.75;;;;;;;;;;4950055;28;92465;-78
2024/04/05 00:19:16;;;;;;;7.50;1.52;;;;;;;;;;4949760;28;92745;-78
2024/04/05 00:21:41;;;;;;;8.35;1.60;;;;;;;;;;4948584;28;92672;-77
2024/04/05 00:24:07;;;;;;;7.97;1.73;;;;;;;;;;4947693;28;95388;-77
2024/04/05 00:26:33;;;;;;;7.65;1.90;;;;;;;;;;4950435;28;93062;-79
2024/04/05 00:28:58;;;;;;;9.82;1.80;;;;;;;;;;4949717;28;93443;-77
2024/04/05 00:31:24;;;;;;;9.95;2.30;;;;;;;;;;4949627;28;93195;-78
2024/04/05 00:33:49;;;;;;;6.30;1.50;;;;;;;;;;4949213;28;92770;-79
2024/04/05 00:36:15;;;;;;;8.65;1.63;;;;;;;;;;4952487;28;92740;-77
2024/04/05 00:38:40;;;;;;;8.27;1.70;;;;;;;;;;4949293;28;92611;-77
2024/04/05 00:41:06;;;;;;;7.22;1.80;;;;;;;;;;4933833;28;92653;-78
2024/04/05 00:43:31;;;;;;;8.30;1.95;;;;;;;;;;4932378;28;95845;-78
2024/04/05 00:45:58;;;;;;;9.20;1.80;;;;;;;;;;4948970;28;92649;-77
2024/04/05 00:48:24;;;;;;;7.50;1.80;;;;;;;;;;4932082;28;94927;-78
2024/04/05 00:50:50;;;;;;;8.40;1.92;;;;;;;;;;4949142;28;93245;-78
2024/04/05 00:53:20;;;;;;;7.13;1.90;;;;;;;;;;4949360;28;92677;-78
2024/04/05 00:55:46;;;;;;;5.78;1.60;;;;;;;;;;4948300;28;92918;-77
2024/04/05 00:58:13;;;;;;;9.57;2.15;;;;;;;;;;4951699;28;92955;-78
2024/04/05 01:00:38;;;;;;;6.88;1.77;;;;;;;;;;4949654;28;93297;-78
2024/04/05 01:03:04;;;;;;;9.23;1.90;;;;;;;;;;4949462;28;93205;-77
2024/04/05 01:05:30;;;;;;;7.18;1.63;;;;;;;;;;4949156;28;92052;-77
2024/04/05 01:07:56;;;;;;;11.52;2.33;;;;;;;;;;4947567;28;92534;-77
2024/04/05 01:10:21;;;;;;;7.05;1.60;;;;;;;;;;4949075;28;93034;-77
2024/04/05 01:13:00;;;;;;;9.52;2.20;;;;;;;;;;4931096;28;95446;-78
2024/04/05 01:15:26;;;;;;;7.95;1.70;;;;;;;;;;4949013;28;94010;-78
2024/04/05 01:17:51;;;;;;;5.97;1.40;;;;;;;;;;4948595;28;94105;-77
2024/04/05 01:20:18;;;;;;;8.85;2.00;;;;;;;;;;4952565;28;92531;-78
2024/04/05 01:23:02;;;;;;;9.07;1.67;;;;;;;;;;4950272;28;93845;-78
2024/04/05 01:25:28;;;;;;;7.35;1.90;;;;;;;;;;4950222;28;92524;-77
2024/04/05 01:27:54;;;;;;;5.28;1.40;;;;;;;;;;4949170;28;93433;-78
2024/04/05 01:30:20;;;;;;;7.82;1.50;;;;;;;;;;4949108;28;92094;-77
2024/04/05 01:32:47;;;;;;;7.50;1.60;;;;;;;;;;4948778;28;92884;-78
2024/04/05 01:35:13;;;;;;;7.07;1.67;;;;;;;;;;4948997;28;93447;-78
2024/04/05 01:37:38;;;;;;;7.47;2.10;;;;;;;;;;4946541;28;96152;-77
2024/04/05 01:40:04;;;;;;;7.93;1.70;;;;;;;;;;4949086;28;92999;-78
2024/04/05 01:42:29;;;;;;;7.50;1.70;;;;;;;;;;4951270;28;92786;-77
2024/04/05 01:44:55;;;;;;;7.05;1.70;;;;;;;;;;4948943;28;92531;-76
2024/04/05 01:47:20;;;;;;;6.60;1.50;;;;;;;;;;4948815;28;93332;-79
2024/04/05 01:49:46;;;;;;;6.28;1.55;;;;;;;;;;4947123;28;93330;-78
2024/04/05 01:52:11;;;;;;;8.18;1.60;;;;;;;;;;4949257;28;93198;-79
2024/04/05 01:54:37;;;;;;;8.25;1.85;;;;;;;;;;4949154;28;92876;-79
2024/04/05 01:57:03;;;;;;;6.43;1.42;;;;;;;;;;4948871;28;94640;-79
2024/04/05 01:59:29;;;;;;;7.18;1.52;;;;;;;;;;4948970;28;93270;-79
2024/04/05 02:01:54;;;;;;;7.03;1.60;;;;;;;;;;4947801;28;95072;-78
2024/04/05 02:04:20;;;;;;;8.77;2.13;;;;;;;;;;4926000;28;96158;-78
2024/04/05 02:06:45;;;;;;;8.98;1.90;;;;;;;;;;4932463;28;93055;-79
2024/04/05 02:09:11;;;;;;;6.43;1.70;;;;;;;;;;4916793;28;93178;-79
2024/04/05 02:11:37;;;;;;;7.70;1.70;;;;;;;;;;4931344;28;92641;-78
2024/04/05 02:14:02;;;;;;;8.35;1.65;;;;;;;;;;4930624;28;93880;-78
2024/04/05 02:16:28;;;;;;;6.05;1.50;;;;;;;;;;4929476;28;93144;-78
2024/04/05 02:18:53;;;;;;;6.30;1.50;;;;;;;;;;4929474;28;92966;-78
2024/04/05 02:21:19;;;;;;;7.95;1.77;;;;;;;;;;4928107;28;92871;-78
2024/04/05 02:23:44;;;;;;;5.78;1.40;;;;;;;;;;4931233;28;93139;-77
2024/04/05 02:26:10;;;;;;;8.98;1.90;;;;;;;;;;4927117;28;95509;-78
2024/04/05 02:28:35;;;;;;;8.82;1.83;;;;;;;;;;4928969;28;92991;-79
2024/04/05 02:31:01;;;;;;;6.57;1.63;;;;;;;;;;4928785;28;92491;-78
2024/04/05 02:33:27;;;;;;;6.18;1.50;;;;;;;;;;4931730;28;93760;-78
2024/04/05 02:35:59;;;;;;;7.85;1.80;;;;;;;;;;4934772;28;93195;-78
2024/04/05 02:38:25;;;;;;;6.95;1.95;;;;;;;;;;4920329;28;92946;-78
2024/04/05 02:40:51;;;;;;;6.22;1.42;;;;;;;;;;4947321;28;92909;-79
2024/04/05 02:43:16;;;;;;;8.80;1.50;;;;;;;;;;4948701;28;92325;-78
2024/04/05 02:49:35;;;;;;;7.57;1.50;;;;;;;;;;4952041;28;92640;-78
2024/04/05 02:52:01;;;;;;;8.07;1.75;;;;;;;;;;4949724;28;94894;-77
2024/04/05 02:54:26;;;;;;;8.18;1.88;;;;;;;;;;4950937;28;95170;-76
2024/04/05 02:56:52;;;;;;;10.60;1.80;;;;;;;;;;4951335;28;92894;-77
2024/04/05 02:59:17;;;;;;;8.50;1.45;;;;;;;;;;4952200;28;92929;-78
2024/04/05 03:01:43;;;;;;;7.15;1.55;;;;;;;;;;4935890;28;93198;-78
2024/04/05 03:04:08;;;;;;;8.82;1.50;;;;;;;;;;4953272;28;93365;-78
2024/04/05 03:06:34;;;;;;;8.15;1.70;;;;;;;;;;4952121;28;92480;-78
2024/04/05 03:08:59;;;;;;;9.68;1.73;;;;;;;;;;4955120;28;92402;-78
2024/04/05 03:11:25;;;;;;;9.40;1.58;;;;;;;;;;4951348;28;92865;-77
2024/04/05 03:13:50;;;;;;;6.72;1.70;;;;;;;;;;4949719;28;93202;-78
2024/04/05 03:16:16;;;;;;;7.05;1.70;;;;;;;;;;4948361;28;95715;-78
2024/04/05 03:18:42;;;;;;;9.45;1.58;;;;;;;;;;4949915;28;92523;-77
2024/04/05 03:21:07;;;;;;;5.35;1.48;;;;;;;;;;4950548;28;92863;-77
2024/04/05 03:23:33;;;;;;;6.45;1.50;;;;;;;;;;4950749;28;92653;-77
2024/04/05 03:25:58;;;;;;;8.85;1.60;;;;;;;;;;4950881;28;92458;-78
2024/04/05 03:28:24;;;;;;;6.25;1.50;;;;;;;;;;4950801;28;92931;-78
2024/04/05 03:30:49;;;;;;;7.13;1.55;;;;;;;;;;4953555;28;93083;-78
2024/04/05 03:33:15;;;;;;;5.55;1.40;;;;;;;;;;4951576;28;92593;-78
2024/04/05 03:35:40;;;;;;;6.38;1.42;;;;;;;;;;4949660;28;92933;-78
2024/04/05 03:38:06;;;;;;;6.60;1.45;;;;;;;;;;4950955;28;93118;-78
2024/04/05 03:40:32;;;;;;;6.03;1.35;;;;;;;;;;4948751;28;94859;-78
2024/04/05 03:42:57;;;;;;;7.03;1.65;;;;;;;;;;4936706;28;93732;-78
2024/04/05 03:45:23;;;;;;;7.05;1.50;;;;;;;;;;4931190;28;92888;-77
2024/04/05 03:47:48;;;;;;;8.32;1.55;;;;;;;;;;4933653;28;92932;-77
2024/04/05 03:50:14;;;;;;;6.38;1.40;;;;;;;;;;4950728;28;93165;-78
2024/04/05 03:52:40;;;;;;;7.28;1.80;;;;;;;;;;4954009;28;93248;-77
2024/04/05 03:55:06;;;;;;;8.23;1.58;;;;;;;;;;4950579;28;93815;-78
2024/04/05 03:57:31;;;;;;;8.15;1.55;;;;;;;;;;4949400;28;91728;-78
2024/04/05 03:59:57;;;;;;;7.60;1.48;;;;;;;;;;4933446;28;92570;-78
2024/04/05 04:02:23;;;;;;;7.30;1.67;;;;;;;;;;4934245;28;93106;-78
2024/04/05 04:04:49;;;;;;;7.10;1.45;;;;;;;;;;4948715;28;95041;-78
2024/04/05 04:07:15;;;;;;;5.55;1.48;;;;;;;;;;4950310;28;95009;-78
2024/04/05 04:09:40;;;;;;;6.72;1.48;;;;;;;;;;4949050;28;93170;-78
2024/04/05 04:12:06;;;;;;;6.28;1.50;;;;;;;;;;4950285;28;92942;-78
2024/04/05 04:14:32;;;;;;;6.63;1.48;;;;;;;;;;4952122;28;92935;-78
2024/04/05 04:16:57;;;;;;;7.88;1.67;;;;;;;;;;4949865;28;92482;-78
2024/04/05 04:19:23;;;;;;;6.38;1.48;;;;;;;;;;4949863;28;92897;-78
2024/04/05 04:21:49;;;;;;;6.57;1.90;;;;;;;;;;4949726;28;92379;-77
2024/04/05 04:24:16;;;;;;;6.43;1.50;;;;;;;;;;4944212;28;92722;-78
2024/04/05 04:26:41;;;;;;;6.80;1.70;;;;;;;;;;4930286;28;93152;-77
2024/04/05 04:29:07;;;;;;;6.85;1.52;;;;;;;;;;4928323;28;95504;-77
2024/04/05 04:31:33;;;;;;;5.15;1.60;;;;;;;;;;4930114;28;92583;-78
2024/04/05 04:33:58;;;;;;;6.95;1.55;;;;;;;;;;4933030;28;92874;-77
2024/04/05 04:36:24;;;;;;;6.47;1.48;;;;;;;;;;4938333;28;92681;-77
2024/04/05 04:38:51;;;;;;;6.90;1.60;;;;;;;;;;4949491;28;92756;-77
2024/04/05 04:41:16;;;;;;;6.15;1.58;;;;;;;;;;4948970;28;93808;-79
2024/04/05 04:43:42;;;;;;;6.78;1.80;;;;;;;;;;4948165;28;92508;-77
2024/04/05 04:46:10;;;;;;;7.35;1.50;;;;;;;;;;4949976;28;92901;-79
2024/04/05 04:48:36;;;;;;;6.57;1.55;;;;;;;;;;4949041;28;93277;-79
2024/04/05 04:51:03;;;;;;;6.72;1.90;;;;;;;;;;4949248;28;92647;-77
2024/04/05 04:53:28;;;;;;;7.10;1.60;;;;;;;;;;4947350;28;95465;-77
2024/04/05 04:55:54;;;;;;;7.65;1.73;;;;;;;;;;4952326;28;93654;-78
2024/04/05 04:58:23;;;;;;;8.38;1.67;;;;;;;;;;4949276;28;92651;-77
2024/04/05 05:00:51;;;;;;;6.45;1.45;;;;;;;;;;4948858;28;92924;-78
2024/04/05 05:03:17;;;;;;;6.57;1.55;;;;;;;;;;4950088;28;93131;-77
2024/04/05 05:05:42;;;;;;;9.23;1.70;;;;;;;;;;4948976;28;92997;-77
2024/04/05 05:08:08;;;;;;;9.27;1.95;;;;;;;;;;4931743;28;93221;-77
2024/04/05 05:10:38;;;;;;;6.22;1.40;;;;;;;;;;4938820;28;91870;-78
2024/04/05 05:13:10;;;;;;;8.65;1.77;;;;;;;;;;4949373;28;92771;-77
2024/04/05 05:15:36;;;;;;;7.00;1.60;;;;;;;;;;4947343;28;92544;-77
2024/04/05 05:18:01;;;;;;;10.85;1.90;;;;;;;;;;4950590;28;94999;-77
2024/04/05 05:20:27;;;;;;;7.90;1.52;;;;;;;;;;4947972;28;93140;-78
2024/04/05 05:22:53;;;;;;;5.93;1.35;;;;;;;;;;4948652;28;92906;-77
2024/04/05 05:25:18;;;;;;;6.15;1.27;;;;;;;;;;4948849;28;92858;-77
2024/04/05 05:27:44;;;;;;;6.25;1.40;;;;;;;;;;4948589;28;94067;-78
2024/04/05 05:30:11;;;;;;;6.03;1.60;;;;;;;;;;4948526;28;92585;-78
2024/04/05 05:32:36;;;;;;;7.57;1.73;;;;;;;;;;4948785;28;92997;-77
2024/04/05 05:35:03;;;;;;;8.32;1.50;;;;;;;;;;4948361;28;95624;-77
2024/04/05 05:37:29;;;;;;;6.00;1.42;;;;;;;;;;4948235;28;92969;-76
2024/04/05 05:39:54;;;;;;;7.40;1.50;;;;;;;;;;4951235;28;92794;-78
2024/04/05 05:42:20;;;;;;;6.70;1.73;;;;;;;;;;4946114;28;95003;-77
2024/04/05 05:44:45;;;;;;;7.82;1.70;;;;;;;;;;4948042;28;94021;-77
2024/04/05 05:47:11;;;;;;;6.50;1.48;;;;;;;;;;4928548;28;93320;-77
2024/04/05 05:49:37;;;;;;;6.65;1.83;;;;;;;;;;4935962;28;92953;-77
2024/04/05 05:52:03;;;;;;;5.38;1.40;;;;;;;;;;4929487;28;93095;-77
2024/04/05 05:54:29;;;;;;;5.22;1.50;;;;;;;;;;4930133;28;93836;-77
2024/04/05 05:56:54;;;;;;;6.70;1.50;;;;;;;;;;4931774;28;92783;-77
2024/04/05 05:59:20;;;;;;;5.53;1.38;;;;;;;;;;4929130;28;92709;-77
2024/04/05 06:01:45;;;;;;;4.75;1.40;;;;;;;;;;4930866;28;93047;-77
2024/04/05 06:04:11;;;;;;;6.32;1.45;;;;;;;;;;4914019;28;96493;-76
2024/04/05 06:06:38;;;;;;;4.65;1.40;;;;;;;;;;4920289;28;94792;-77
2024/04/05 06:09:07;;;;;;;7.00;1.50;;;;;;;;;;4912766;28;93128;-76
2024/04/05 06:11:33;;;;;;;5.05;1.52;;;;;;;;;;4927366;28;93772;-76
2024/04/05 06:13:58;;;;;;;6.20;1.45;;;;;;;;;;4928452;28;93539;-78
2024/04/05 06:16:24;;;;;;;6.63;1.45;;;;;;;;;;4928972;28;92991;-78
2024/04/05 06:18:49;;;;;;;5.15;1.50;;;;;;;;;;4930075;28;92927;-78
2024/04/05 06:21:15;;;;;;;6.20;1.42;;;;;;;;;;4915970;28;94152;-79
2024/04/05 06:23:40;;;;;;;4.78;1.27;;;;;;;;;;4935528;28;92213;-78
2024/04/05 06:26:06;;;;;;;6.53;1.70;;;;;;;;;;4932483;28;93486;-78
2024/04/05 06:28:32;;;;;;;4.95;1.30;;;;;;;;;;4932600;28;92427;-79
2024/04/05 06:30:59;;;;;;;4.95;1.30;;;;;;;;;;4932441;28;94891;-78
2024/04/05 06:33:26;;;;;;;4.28;1.30;;;;;;;;;;4936368;28;93023;-77
2024/04/05 06:35:58;;;;;;;6.22;1.40;;;;;;;;;;4938862;28;92649;-77
2024/04/05 06:38:24;;;;;;;6.00;1.40;;;;;;;;;;4955060;28;92894;-77
2024/04/05 06:40:54;;;;;;;6.93;1.50;;;;;;;;;;4936650;28;95922;-78
2024/04/05 06:43:20;;;;;;;5.70;1.55;;;;;;;;;;4956360;28;92921;-78
2024/04/05 06:45:55;;;;;;;5.10;1.48;;;;;;;;;;4949317;28;93581;-78
2024/04/05 06:48:21;;;;;;;6.43;1.30;;;;;;;;;;4951774;28;92163;-78
2024/04/05 06:50:48;;;;;;;5.35;1.40;;;;;;;;;;4934889;28;93283;-78
2024/04/05 06:53:21;;;;;;;5.00;1.30;;;;;;;;;;4935023;28;96339;-78
2024/04/05 06:55:47;;;;;;;5.07;1.27;;;;;;;;;;4948971;28;94830;-78
2024/04/05 06:58:12;;;;;;;4.18;1.30;;;;;;;;;;4951256;28;95773;-78
2024/04/05 07:00:39;;;;;;;5.85;1.50;;;;;;;;;;4950401;28;93114;-76
2024/04/05 07:03:05;;;;;;;7.43;1.60;;;;;;;;;;4924828;28;92509;-76
2024/04/05 07:05:31;;;;;;;4.78;1.40;;;;;;;;;;4947054;28;93653;-78
2024/04/05 07:07:57;;;;;;;4.88;1.13;;;;;;;;;;4950450;28;92882;-78
2024/04/05 07:10:22;;;;;;;5.90;1.70;;;;;;;;;;4950260;28;93503;-77
2024/04/05 07:12:50;;;;;;;6.63;1.35;;;;;;;;;;4950973;28;92358;-78
2024/04/05 07:15:16;;;;;;;4.90;1.27;;;;;;;;;;4933785;28;92568;-78
2024/04/05 07:17:41;;;;;;;4.47;1.20;;;;;;;;;;4933542;28;96656;-78
2024/04/05 07:20:11;;;;;;;4.55;1.20;;;;;;;;;;4949052;28;95698;-77
2024/04/05 07:22:36;;;;;;;5.03;1.30;;;;;;;;;;4950577;28;92770;-77
2024/04/05 07:25:06;;;;;;;4.88;1.40;;;;;;;;;;4950623;28;93577;-77
2024/04/05 07:27:32;;;;;;;6.20;1.60;;;;;;;;;;4936300;28;95714;-76
2024/04/05 07:29:57;;;;;;;4.22;1.23;;;;;;;;;;4949981;28;92667;-76
2024/04/05 07:32:23;;;;;;;4.88;1.42;;;;;;;;;;4948932;28;93018;-76
2024/04/05 07:34:48;;;;;;;4.40;1.20;;;;;;;;;;4949955;28;92702;-76
2024/04/05 07:37:14;;;;;;;5.35;1.30;;;;;;;;;;4951205;28;94064;-76
2024/04/05 07:39:39;;;;;;;5.93;1.20;;;;;;;;;;4949120;28;92950;-77
2024/04/05 07:42:05;;;;;;;4.97;1.40;;;;;;;;;;4938857;28;93208;-77
2024/04/05 07:44:31;;;;;;;4.93;1.20;;;;;;;;;;4929234;28;95367;-76
2024/04/05 07:46:56;;;;;;;7.80;1.40;;;;;;;;;;4942339;28;92997;-76
2024/04/05 07:49:22;;;;;;;6.80;1.60;;;;;;;;;;4936184;28;92700;-78
2024/04/05 07:51:48;;;;;;;3.53;1.23;;;;;;;;;;4949237;28;93130;-78
2024/04/05 07:54:14;;;;;;;4.53;1.30;;;;;;;;;;4930194;28;92564;-78
2024/04/05 07:56:39;;;;;;;4.53;1.33;;;;;;;;;;4940018;28;92794;-78
2024/04/05 07:59:06;;;;;;;3.25;1.27;;;;;;;;;;4932951;28;95599;-77
2024/04/05 08:01:31;;;;;;;5.13;1.30;;;;;;;;;;4949695;28;92000;-77
2024/04/05 08:03:57;;;;;;;5.85;1.50;;;;;;;;;;4949378;28;92558;-78
2024/04/05 08:06:23;;;;;;;4.50;1.38;;;;;;;;;;4949376;28;93457;-78
2024/04/05 08:08:48;;;;;;;6.38;1.50;;;;;;;;;;4948482;28;94940;-78
2024/04/05 08:11:14;;;;;;;5.65;1.33;;;;;;;;;;4913519;28;97542;-77
2024/04/05 08:13:40;;;;;;;5.10;1.30;;;;;;;;;;4912076;28;92549;-78
2024/04/05 08:16:06;;;;;;;5.20;1.50;;;;;;;;;;4913819;28;93982;-78
2024/04/05 08:18:32;;;;;;;4.53;1.30;;;;;;;;;;4930680;28;93123;-77
2024/04/05 08:20:57;;;;;;;5.07;1.20;;;;;;;;;;4929983;28;92518;-78
2024/04/05 08:23:23;;;;;;;6.70;1.50;;;;;;;;;;4930179;28;92816;-78
2024/04/05 08:25:48;;;;;;;5.18;1.20;;;;;;;;;;4930088;28;92209;-78
2024/04/05 08:28:14;;;;;;;3.00;1.15;;;;;;;;;;4930241;28;92973;-78
2024/04/05 08:30:39;;;;;;;5.70;1.48;;;;;;;;;;4932744;28;92764;-78
2024/04/05 08:33:09;;;;;;;4.32;1.42;;;;;;;;;;4929021;28;94928;-78
2024/04/05 08:35:34;;;;;;;3.95;1.25;;;;;;;;;;4944563;28;95862;-77
2024/04/05 08:38:00;;;;;;;5.55;1.50;;;;;;;;;;4948066;28;93088;-78
2024/04/05 08:40:28;;;;;;;6.30;1.52;;;;;;;;;;4949162;28;92628;-77
2024/04/05 08:42:59;;;;;;;5.10;1.38;;;;;;;;;;4948692;28;92765;-77
2024/04/05 08:45:28;;;;;;;4.60;1.15;;;;;;;;;;4948979;28;92986;-78
2024/04/05 08:47:56;;;;;;;3.67;1.30;;;;;;;;;;4949323;28;92756;-78
2024/04/05 08:50:22;;;;;;;3.97;1.30;;;;;;;;;;4949331;28;92769;-77
2024/04/05 08:52:48;;;;;;;3.85;1.25;;;;;;;;;;4951929;28;93149;-77
2024/04/05 08:55:14;;;;;;;3.95;1.40;;;;;;;;;;4948755;28;93325;-78
2024/04/05 08:57:41;;;;;;;4.93;1.25;;;;;;;;;;4930571;28;96096;-77
2024/04/05 09:00:07;;;;;;;3.50;1.10;;;;;;;;;;4948926;28;93155;-77
2024/04/05 09:02:35;;;;;;;4.97;1.30;;;;;;;;;;4948959;28;92859;-78
2024/04/05 09:05:06;;;;;;;5.55;1.23;;;;;;;;;;4943644;28;92979;-78
2024/04/05 09:07:33;;;;;;;4.25;1.30;;;;;;;;;;4928914;28;92763;-78
2024/04/05 09:10:08;;;;;;;5.75;1.20;;;;;;;;;;4929819;28;92947;-78
2024/04/05 09:12:34;;;;;;;3.97;1.30;;;;;;;;;;4928259;28;92974;-78
2024/04/05 09:14:59;;;;;;;2.53;1.30;;;;;;;;;;4931061;28;92005;-78
2024/04/05 09:17:25;;;;;;;5.45;1.40;;;;;;;;;;4927576;28;94285;-77
2024/04/05 09:20:05;;;;;;;5.60;1.67;;;;;;;;;;4926641;28;94258;-78
2024/04/05 09:22:31;;;;;;;3.95;1.10;;;;;;;;;;4928220;28;95380;-78
2024/04/05 09:25:03;;;;;;;4.53;1.10;;;;;;;;;;4912660;28;93139;-78
2024/04/05 09:27:28;;;;;;;4.13;1.30;;;;;;;;;;4929068;28;92744;-76
2024/04/05 09:30:02;;;;;;;3.08;1.10;;;;;;;;;;4929217;28;93359;-78
2024/04/05 09:32:28;;;;;;;4.50;1.08;;;;;;;;;;4928891;28;92967;-78
2024/04/05 09:34:54;;;;;;;4.45;1.20;;;;;;;;;;4943539;28;92973;-78
2024/04/05 09:37:21;;;;;;;4.05;1.40;;;;;;;;;;4951453;28;92863;-77
2024/04/05 09:39:47;;;;;;;;;;;;;;;;;;4948311;28;92496;-78
2024/04/05 09:42:12;;;;;;;3.75;1.33;;;;;;;;;;4949665;28;92758;-77
2024/04/05 09:44:41;;;;;;;3.78;1.23;;;;;;;;;;4948271;28;93126;-78
2024/04/05 09:47:06;;;;;;;3.33;1.27;;;;;;;;;;4930604;28;95513;-78
2024/04/05 09:49:32;;;;;;;5.03;1.42;;;;;;;;;;4947561;28;95083;-77
2024/04/05 09:51:59;;;;;;;4.45;1.15;;;;;;;;;;4947794;28;92743;-77
2024/04/05 09:54:27;;;;;;;4.45;1.25;;;;;;;;;;4931315;28;92616;-78
2024/04/05 09:56:52;;;;;;;;;;;;;;;;;;4948572;28;92900;-77
2024/04/05 09:59:28;;;;;;;3.03;1.35;;;;;;;;;;4952735;28;93128;-78
2024/04/05 10:01:55;;;;;;;5.05;1.40;;;;;;;;;;4947866;28;97693;-78
2024/04/05 10:04:24;;;;;;;4.25;1.30;;;;;;;;;;4940763;28;92254;-79
2024/04/05 10:06:50;;;;;;;5.00;1.20;;;;;;;;;;4930282;28;92482;-77
2024/04/05 10:09:16;;;;;;;3.92;1.40;;;;;;;;;;4928818;28;92949;-77
2024/04/05 10:11:42;;;;;;;4.72;1.50;;;;;;;;;;4926168;28;95752;-77
2024/04/05 10:14:08;;;;;;;5.32;1.40;;;;;;;;;;4929905;28;92904;-77
2024/04/05 10:16:34;;;;;;;3.35;1.15;;;;;;;;;;4913827;28;92801;-77
2024/04/05 10:19:08;;;;;;;4.47;1.20;;;;;;;;;;4912310;28;93624;-78
2024/04/05 10:21:34;;;;;;;2.58;1.00;;;;;;;;;;4931456;28;92698;-78
2024/04/05 10:24:00;;;;;;;3.83;1.13;;;;;;;;;;4928557;28;92849;-77
2024/04/05 10:26:25;;;;;;;4.63;1.40;;;;;;;;;;4929303;28;92922;-78
2024/04/05 10:29:01;;;;;;;4.25;1.50;;;;;;;;;;4912762;28;92990;-78
2024/04/05 10:31:27;;;;;;;4.05;1.20;;;;;;;;;;4945655;28;93182;-78
2024/04/05 10:33:52;;;;;;;4.78;1.10;;;;;;;;;;4947596;28;93368;-78
2024/04/05 10:36:18;;;;;;;4.25;1.30;;;;;;;;;;4930525;28;95684;-77
2024/04/05 10:38:44;;;;;;;2.45;1.02;;;;;;;;;;4949981;28;92995;-77
2024/04/05 10:41:09;;;;;;;2.17;0.98;;;;;;;;;;4952868;28;92709;-78
2024/04/05 10:43:34;;;;;;;3.85;1.13;;;;;;;;;;4931982;28;93178;-78
2024/04/05 10:46:01;;;;;;;3.67;1.20;;;;;;;;;;4949021;28;92918;-78
2024/04/05 10:48:26;;;;;;;3.90;1.42;;;;;;;;;;4932165;28;93892;-77
2024/04/05 10:50:52;;;;;;;4.78;1.38;;;;;;;;;;4948995;28;92489;-77
2024/04/05 10:53:19;;;;;;;4.55;1.45;;;;;;;;;;4949583;28;92098;-78
2024/04/05 10:55:45;;;;;;;4.07;1.30;;;;;;;;;;4931235;28;96178;-78
2024/04/05 10:58:11;;;;;;;4.10;1.20;;;;;;;;;;4931985;28;92738;-78
2024/04/05 11:00:37;;;;;;;4.55;1.20;;;;;;;;;;4946844;28;94968;-77
2024/04/05 11:03:06;;;;;;;3.80;1.13;;;;;;;;;;4922910;28;97858;-77
2024/04/05 11:05:31;;;;;;;3.42;1.10;;;;;;;;;;4928881;28;92750;-79
2024/04/05 11:08:00;;;;;;;2.67;1.13;;;;;;;;;;4932245;28;92804;-78
2024/04/05 11:10:36;;;;;;;5.43;1.33;;;;;;;;;;4931345;28;93339;-79
2024/04/05 11:13:15;;;;;;;3.28;1.10;;;;;;;;;;4935131;28;92580;-78
2024/04/05 11:15:41;;;;;;;3.90;1.40;;;;;;;;;;4919268;28;95704;-78
2024/04/05 11:18:07;;;;;;;3.25;1.00;;;;;;;;;;4938448;28;92412;-78
2024/04/05 11:20:35;;;;;;;3.92;1.30;;;;;;;;;;4937771;28;92986;-77
2024/04/05 11:23:01;;;;;;;2.85;1.05;;;;;;;;;;4935558;28;92565;-78
2024/04/05 11:25:27;;;;;;;2.60;1.10;;;;;;;;;;4915891;28;95496;-79
2024/04/05 11:27:53;;;;;;;3.65;1.20;;;;;;;;;;4933080;28;102181;-78
2024/04/05 11:30:20;;;;;;;2.97;1.10;;;;;;;;;;4949038;28;93260;-78
2024/04/05 11:32:45;;;;;;;4.50;1.23;;;;;;;;;;4950753;28;93250;-78
2024/04/05 11:35:12;;;;;;;2.92;1.17;;;;;;;;;;4949807;28;93579;-76
2024/04/05 11:37:43;;;;;;;3.92;1.13;;;;;;;;;;4949004;28;93321;-77
2024/04/05 11:40:09;;;;;;;1.75;0.95;;;;;;;;;;4930859;28;92542;-78
2024/04/05 11:42:38;;;;;;;3.00;1.20;;;;;;;;;;4931481;28;92992;-80
2024/04/05 11:45:05;;;;;;;5.60;1.40;;;;;;;;;;4949174;28;92876;-78
2024/04/05 11:47:34;;;;;;;3.00;1.15;;;;;;;;;;4953925;28;92503;-79
2024/04/05 11:50:00;;;;;;;2.95;1.00;;;;;;;;;;4948439;28;95605;-78
2024/04/05 11:52:26;;;;;;;3.65;1.10;;;;;;;;;;4951225;28;92667;-78
2024/04/05 11:54:52;;;;;;;2.65;1.10;;;;;;;;;;4951337;28;93105;-79
2024/04/05 11:57:18;;;;;;;3.75;1.27;;;;;;;;;;4951457;28;93081;-77
2024/04/05 11:59:43;;;;;;;2.20;1.05;;;;;;;;;;4950178;28;92618;-77
2024/04/05 12:02:09;;;;;;;3.47;1.00;;;;;;;;;;4935016;28;92724;-79
2024/04/05 12:04:35;;;;;;;2.67;1.10;;;;;;;;;;4914854;28;93873;-77
2024/04/05 12:07:01;;;;;;;1.95;1.10;;;;;;;;;;4915634;28;92131;-78
2024/04/05 12:09:26;;;;;;;2.85;1.08;;;;;;;;;;4933386;28;93401;-77
2024/04/05 12:11:52;;;;;;;6.40;1.33;;;;;;;;;;4913124;28;92742;-78
2024/04/05 12:14:18;;;;;;;2.70;1.10;;;;;;;;;;4929130;28;95380;-77
2024/04/05 12:16:44;;;;;;;4.13;1.13;;;;;;;;;;4929525;28;93287;-77
2024/04/05 12:19:10;;;;;;;4.13;1.20;;;;;;;;;;4929804;28;92567;-77
2024/04/05 12:21:36;;;;;;;2.65;1.20;;;;;;;;;;4929477;28;93133;-77
2024/04/05 12:24:01;;;;;;;3.65;1.17;;;;;;;;;;4931453;28;93203;-78
2024/04/05 12:26:27;;;;;;;3.05;1.00;;;;;;;;;;4950554;28;92718;-76
2024/04/05 12:28:54;;;;;;;4.65;1.20;;;;;;;;;;4953326;28;93011;-79
2024/04/05 12:31:20;;;;;;;2.67;1.08;;;;;;;;;;4952983;28;92548;-79
2024/04/05 12:33:45;;;;;;;3.13;1.10;;;;;;;;;;4948857;28;92944;-79
2024/04/05 12:36:13;;;;;;;3.35;1.10;;;;;;;;;;4948293;28;93992;-79
2024/04/05 12:38:39;;;;;;;3.53;1.08;;;;;;;;;;4947697;28;94983;-79
2024/04/05 12:41:06;;;;;;;3.15;0.90;;;;;;;;;;4949088;28;95845;-78
2024/04/05 12:43:32;;;;;;;2.00;1.00;;;;;;;;;;4933621;28;93807;-78
2024/04/05 12:45:59;;;;;;;2.35;1.38;;;;;;;;;;4933469;28;93279;-78
2024/04/05 12:48:24;;;;;;;2.20;1.10;;;;;;;;;;4949526;28;92716;-78
2024/04/05 12:50:54;;;;;;;2.67;1.00;;;;;;;;;;4951476;28;93081;-77
2024/04/05 12:53:20;;;;;;;4.30;1.05;;;;;;;;;;4949078;28;92780;-78
2024/04/05 12:55:52;;;;;;;3.33;1.10;;;;;;;;;;4949553;28;92302;-78
2024/04/05 12:58:18;;;;;;;1.70;0.90;;;;;;;;;;4949366;28;92485;-79
2024/04/05 13:00:44;;;;;;;2.05;0.90;;;;;;;;;;4935162;28;94116;-77
2024/04/05 13:03:09;;;;;;;3.25;1.10;;;;;;;;;;4953158;28;95609;-78
2024/04/05 13:05:35;;;;;;;2.83;1.10;;;;;;;;;;4948773;28;92781;-77
2024/04/05 13:08:00;;;;;;;1.90;0.90;;;;;;;;;;4949361;28;93153;-78
2024/04/05 13:10:26;;;;;;;2.75;0.98;;;;;;;;;;4948849;28;93027;-77
2024/04/05 13:12:53;;;;;;;1.48;0.90;;;;;;;;;;4952165;28;92642;-77
2024/04/05 13:15:18;;;;;;;2.22;1.20;;;;;;;;;;4949670;28;93167;-76
2024/04/05 13:17:44;;;;;;;1.67;0.90;;;;;;;;;;4949154;28;92530;-78
2024/04/05 13:20:09;;;;;;;1.60;0.90;;;;;;;;;;4949026;28;93268;-77
2024/04/05 13:22:35;;;;;;;3.25;1.02;;;;;;;;;;4948587;28;93357;-77
2024/04/05 13:25:00;;;;;;;1.85;0.85;;;;;;;;;;4949454;28;92847;-77
2024/04/05 13:27:26;;;;;;;2.05;1.00;;;;;;;;;;4947521;28;95151;-78
2024/04/05 13:29:51;;;;;;;2.38;1.00;;;;;;;;;;4946452;28;93297;-77
2024/04/05 13:32:18;;;;;;;2.83;1.05;;;;;;;;;;4948603;28;92906;-77
2024/04/05 13:34:44;;;;;;;2.05;0.90;;;;;;;;;;4951322;28;92662;-78
2024/04/05 13:37:09;;;;;;;2.13;0.95;;;;;;;;;;4948431;28;93937;-78
2024/04/05 13:39:35;;;;;;;3.67;1.10;;;;;;;;;;4931428;28;95398;-77
2024/04/05 13:42:03;;;;;;;1.70;0.80;;;;;;;;;;4947927;28;93544;-77
2024/04/05 13:44:29;;;;;;;2.25;1.02;;;;;;;;;;4948736;28;91910;-78
2024/04/05 13:46:55;;;;;;;3.33;1.00;;;;;;;;;;4948693;28;93139;-78
2024/04/05 13:49:20;;;;;;;3.13;1.20;;;;;;;;;;4948007;28;92933;-78
2024/04/05 13:51:46;;;;;;;2.33;1.02;;;;;;;;;;4946105;28;95288;-77
2024/04/05 13:54:11;;;;;;;2.53;0.90;;;;;;;;;;4931134;28;98661;-77
2024/04/05 13:56:38;;;;;;;2.40;0.90;;;;;;;;;;4950971;28;95030;-77
2024/04/05 13:59:04;;;;;;;2.20;1.00;;;;;;;;;;4948325;28;92846;-78
2024/04/05 14:01:29;;;;;;;3.60;1.00;;;;;;;;;;4947711;28;93036;-77
2024/04/05 14:03:55;;;;;;;3.22;1.00;;;;;;;;;;4931824;28;92594;-78
2024/04/05 14:06:21;;;;;;;3.38;1.05;;;;;;;;;;4948186;28;92660;-77
2024/04/05 14:08:47;;;;;;;2.65;1.10;;;;;;;;;;4948846;28;92382;-78
2024/04/05 14:11:12;;;;;;;2.67;1.00;;;;;;;;;;4948030;28;92527;-77
2024/04/05 14:13:40;;;;;;;2.33;0.80;;;;;;;;;;4947450;28;93886;-78
2024/04/05 14:16:06;;;;;;;2.72;0.90;;;;;;;;;;4915781;28;96928;-77
2024/04/05 14:18:31;;;;;;;2.03;0.90;;;;;;;;;;4931771;28;93068;-77
2024/04/05 14:20:57;;;;;;;2.42;1.00;;;;;;;;;;4928197;28;92977;-77
2024/04/05 14:23:26;;;;;;;3.30;1.00;;;;;;;;;;4928315;28;92966;-78
2024/04/05 14:25:56;;;;;;;1.88;0.90;;;;;;;;;;4927309;28;93729;-78
2024/04/05 14:28:22;;;;;;;2.78;1.00;;;;;;;;;;4942992;28;93103;-78
2024/04/05 14:30:55;;;;;;;2.88;1.02;;;;;;;;;;4947536;28;99937;-78
2024/04/05 14:33:21;;;;;;;2.90;0.90;;;;;;;;;;4947984;28;92760;-78
2024/04/05 14:35:55;;;;;;;3.05;0.90;;;;;;;;;;4946482;28;93055;-78
2024/04/05 14:38:20;;;;;;;1.25;0.85;;;;;;;;;;4948207;28;92514;-78
2024/04/05 14:40:46;;;;;;;2.67;1.00;;;;;;;;;;4950484;28;95263;-79
2024/04/05 14:43:11;;;;;;;3.08;0.80;;;;;;;;;;4951969;28;92484;-78